sensor_id;sensor_type;location;lat;lon;timestamp;temperature;humidity
16289;DHT22;26089;43.538;5.250;2022-10-17T00:01:15;18.10;99.90
16289;DHT22;26089;43.538;5.250;2022-10-17T00:03:42;18.10;99.90
16289;DHT22;26089;43.538;5.250;2022-10-17T00:06:11;18.10;99.90
16289;DHT22;26089;43.538;5.250;2022-10-17T00:08:39;18.10;99.90
16289;DHT22;26089;43.538;5.250;2022-10-17T00:11:08;18.10;99.90
16289;DHT22;26089;43.538;5.250;2022-10-17T00:13:37;18.00;99.90
16289;DHT22;26089;43.538;5.250;2022-10-17T00:16:07;17.90;99.90
16289;DHT22;26089;43.538;5.250;2022-10-17T00:18:34;17.90;99.90
16289;DHT22;26089;43.538;5.250;2022-10-17T00:21:01;17.90;99.90
16289;DHT22;26089;43.538;5.250;2022-10-17T00:23:28;17.90;99.90
16289;DHT22;26089;43.538;5.250;2022-10-17T00:25:59;17.80;99.90
16289;DHT22;26089;43.538;5.250;2022-10-17T00:28:26;17.80;99.90
16289;DHT22;26089;43.538;5.250;2022-10-17T00:30:56;17.70;99.90
16289;DHT22;26089;43.538;5.250;2022-10-17T00:33:25;17.70;99.90
16289;DHT22;26089;43.538;5.250;2022-10-17T00:36:02;17.70;99.90
16289;DHT22;26089;43.538;5.250;2022-10-17T00:38:29;17.70;99.90
16289;DHT22;26089;43.538;5.250;2022-10-17T00:40:56;17.60;99.90
16289;DHT22;26089;43.538;5.250;2022-10-17T00:43:23;17.50;99.90
16289;DHT22;26089;43.538;5.250;2022-10-17T00:45:51;17.60;99.90
16289;DHT22;26089;43.538;5.250;2022-10-17T00:48:19;17.50;99.90
16289;DHT22;26089;43.538;5.250;2022-10-17T00:50:49;17.40;99.90
16289;DHT22;26089;43.538;5.250;2022-10-17T00:53:17;17.40;99.90
16289;DHT22;26089;43.538;5.250;2022-10-17T00:55:48;17.50;99.90
16289;DHT22;26089;43.538;5.250;2022-10-17T00:58:16;17.60;99.90
16289;DHT22;26089;43.538;5.250;2022-10-17T01:00:43;17.60;99.90
16289;DHT22;26089;43.538;5.250;2022-10-17T01:03:12;17.70;99.90
16289;DHT22;26089;43.538;5.250;2022-10-17T01:05:40;17.70;99.90
16289;DHT22;26089;43.538;5.250;2022-10-17T01:08:10;17.70;99.90
16289;DHT22;26089;43.538;5.250;2022-10-17T01:10:48;17.80;99.90
16289;DHT22;26089;43.538;5.250;2022-10-17T01:13:24;17.70;99.90
16289;DHT22;26089;43.538;5.250;2022-10-17T01:16:03;17.70;99.90
16289;DHT22;26089;43.538;5.250;2022-10-17T01:18:39;17.80;99.90
16289;DHT22;26089;43.538;5.250;2022-10-17T01:24:28;17.80;99.90
16289;DHT22;26089;43.538;5.250;2022-10-17T01:29:59;17.80;99.90
16289;DHT22;26089;43.538;5.250;2022-10-17T01:32:38;17.70;99.90
16289;DHT22;26089;43.538;5.250;2022-10-17T01:35:10;17.70;99.90
16289;DHT22;26089;43.538;5.250;2022-10-17T01:37:43;17.60;99.90
16289;DHT22;26089;43.538;5.250;2022-10-17T01:40:16;17.60;99.90
16289;DHT22;26089;43.538;5.250;2022-10-17T01:42:54;17.60;99.90
16289;DHT22;26089;43.538;5.250;2022-10-17T01:45:27;17.60;99.90
16289;DHT22;26089;43.538;5.250;2022-10-17T01:48:01;17.60;99.90
16289;DHT22;26089;43.538;5.250;2022-10-17T01:50:32;17.60;99.90
16289;DHT22;26089;43.538;5.250;2022-10-17T01:53:02;17.50;99.90
16289;DHT22;26089;43.538;5.250;2022-10-17T01:55:35;17.50;99.90
16289;DHT22;26089;43.538;5.250;2022-10-17T01:58:06;17.50;99.90
16289;DHT22;26089;43.538;5.250;2022-10-17T02:00:35;17.50;99.90
16289;DHT22;26089;43.538;5.250;2022-10-17T02:03:09;17.60;99.90
16289;DHT22;26089;43.538;5.250;2022-10-17T02:05:39;17.50;99.90
16289;DHT22;26089;43.538;5.250;2022-10-17T02:08:07;17.50;99.90
16289;DHT22;26089;43.538;5.250;2022-10-17T02:10:46;17.40;99.90
16289;DHT22;26089;43.538;5.250;2022-10-17T02:13:22;17.40;99.90
16289;DHT22;26089;43.538;5.250;2022-10-17T02:16:10;17.40;99.90
16289;DHT22;26089;43.538;5.250;2022-10-17T02:19:01;17.40;99.90
16289;DHT22;26089;43.538;5.250;2022-10-17T02:21:37;17.40;99.90
16289;DHT22;26089;43.538;5.250;2022-10-17T02:24:17;17.30;99.90
16289;DHT22;26089;43.538;5.250;2022-10-17T02:26:51;17.30;99.90
16289;DHT22;26089;43.538;5.250;2022-10-17T02:29:24;17.30;99.90
16289;DHT22;26089;43.538;5.250;2022-10-17T02:31:57;17.30;99.90
16289;DHT22;26089;43.538;5.250;2022-10-17T02:34:29;17.20;99.90
16289;DHT22;26089;43.538;5.250;2022-10-17T02:36:59;17.20;99.90
16289;DHT22;26089;43.538;5.250;2022-10-17T02:39:29;17.20;99.90
16289;DHT22;26089;43.538;5.250;2022-10-17T02:41:59;17.20;99.90
16289;DHT22;26089;43.538;5.250;2022-10-17T02:44:28;17.10;99.90
16289;DHT22;26089;43.538;5.250;2022-10-17T02:47:02;17.10;99.90
16289;DHT22;26089;43.538;5.250;2022-10-17T02:49:36;17.10;99.90
16289;DHT22;26089;43.538;5.250;2022-10-17T02:52:09;17.10;99.90
16289;DHT22;26089;43.538;5.250;2022-10-17T02:54:40;17.10;99.90
16289;DHT22;26089;43.538;5.250;2022-10-17T02:57:14;17.10;99.90
16289;DHT22;26089;43.538;5.250;2022-10-17T02:59:43;17.10;99.90
16289;DHT22;26089;43.538;5.250;2022-10-17T03:02:11;17.10;99.90
16289;DHT22;26089;43.538;5.250;2022-10-17T03:04:41;17.10;99.90
16289;DHT22;26089;43.538;5.250;2022-10-17T03:07:08;17.10;99.90
16289;DHT22;26089;43.538;5.250;2022-10-17T03:09:35;17.10;99.90
16289;DHT22;26089;43.538;5.250;2022-10-17T03:12:03;17.10;99.90
16289;DHT22;26089;43.538;5.250;2022-10-17T03:14:30;17.10;99.90
16289;DHT22;26089;43.538;5.250;2022-10-17T03:16:57;17.20;99.90
16289;DHT22;26089;43.538;5.250;2022-10-17T03:19:24;17.20;99.90
16289;DHT22;26089;43.538;5.250;2022-10-17T03:21:53;17.20;99.90
16289;DHT22;26089;43.538;5.250;2022-10-17T03:24:21;17.20;99.90
16289;DHT22;26089;43.538;5.250;2022-10-17T03:26:48;17.30;99.90
16289;DHT22;26089;43.538;5.250;2022-10-17T03:29:15;17.30;99.90
16289;DHT22;26089;43.538;5.250;2022-10-17T03:31:42;17.40;99.90
16289;DHT22;26089;43.538;5.250;2022-10-17T03:34:09;17.50;99.90
16289;DHT22;26089;43.538;5.250;2022-10-17T03:36:36;17.50;99.90
16289;DHT22;26089;43.538;5.250;2022-10-17T03:39:04;17.50;99.90
16289;DHT22;26089;43.538;5.250;2022-10-17T03:41:31;17.50;99.90
16289;DHT22;26089;43.538;5.250;2022-10-17T03:43:58;17.50;99.90
16289;DHT22;26089;43.538;5.250;2022-10-17T03:46:25;17.50;99.90
16289;DHT22;26089;43.538;5.250;2022-10-17T03:48:52;17.50;99.90
16289;DHT22;26089;43.538;5.250;2022-10-17T03:51:19;17.60;99.90
16289;DHT22;26089;43.538;5.250;2022-10-17T03:53:47;17.60;99.90
16289;DHT22;26089;43.538;5.250;2022-10-17T03:56:16;17.60;99.90
16289;DHT22;26089;43.538;5.250;2022-10-17T03:58:44;17.60;99.90
16289;DHT22;26089;43.538;5.250;2022-10-17T04:01:13;17.60;99.90
16289;DHT22;26089;43.538;5.250;2022-10-17T04:03:41;17.60;99.90
16289;DHT22;26089;43.538;5.250;2022-10-17T04:06:10;17.60;99.90
16289;DHT22;26089;43.538;5.250;2022-10-17T04:08:38;17.60;99.90
16289;DHT22;26089;43.538;5.250;2022-10-17T04:11:06;17.60;99.90
16289;DHT22;26089;43.538;5.250;2022-10-17T04:13:35;17.60;99.90
16289;DHT22;26089;43.538;5.250;2022-10-17T04:16:04;17.50;99.90
16289;DHT22;26089;43.538;5.250;2022-10-17T04:18:32;17.40;99.90
16289;DHT22;26089;43.538;5.250;2022-10-17T04:21:00;17.30;99.90
16289;DHT22;26089;43.538;5.250;2022-10-17T04:23:28;17.30;99.90
16289;DHT22;26089;43.538;5.250;2022-10-17T04:25:55;17.30;99.90
16289;DHT22;26089;43.538;5.250;2022-10-17T04:28:22;17.30;99.90
16289;DHT22;26089;43.538;5.250;2022-10-17T04:30:56;17.20;99.90
16289;DHT22;26089;43.538;5.250;2022-10-17T04:33:24;17.10;99.90
16289;DHT22;26089;43.538;5.250;2022-10-17T04:35:55;17.10;99.90
16289;DHT22;26089;43.538;5.250;2022-10-17T04:38:22;17.10;99.90
16289;DHT22;26089;43.538;5.250;2022-10-17T04:40:49;17.00;99.90
16289;DHT22;26089;43.538;5.250;2022-10-17T04:43:16;17.00;99.90
16289;DHT22;26089;43.538;5.250;2022-10-17T04:45:43;16.90;99.90
16289;DHT22;26089;43.538;5.250;2022-10-17T04:48:12;16.80;99.90
16289;DHT22;26089;43.538;5.250;2022-10-17T04:50:39;16.70;99.90
16289;DHT22;26089;43.538;5.250;2022-10-17T04:53:06;16.60;99.90
16289;DHT22;26089;43.538;5.250;2022-10-17T04:55:36;16.60;99.90
16289;DHT22;26089;43.538;5.250;2022-10-17T04:58:04;16.50;99.90
16289;DHT22;26089;43.538;5.250;2022-10-17T05:00:31;16.50;99.90
16289;DHT22;26089;43.538;5.250;2022-10-17T05:02:58;16.50;99.90
16289;DHT22;26089;43.538;5.250;2022-10-17T05:05:26;16.50;99.90
16289;DHT22;26089;43.538;5.250;2022-10-17T05:07:53;16.50;99.90
16289;DHT22;26089;43.538;5.250;2022-10-17T05:10:20;16.40;99.90
16289;DHT22;26089;43.538;5.250;2022-10-17T05:12:47;16.40;99.90
16289;DHT22;26089;43.538;5.250;2022-10-17T05:15:14;16.40;99.90
16289;DHT22;26089;43.538;5.250;2022-10-17T05:17:41;16.30;99.90
16289;DHT22;26089;43.538;5.250;2022-10-17T05:20:09;16.30;99.90
16289;DHT22;26089;43.538;5.250;2022-10-17T05:22:38;16.50;99.90
16289;DHT22;26089;43.538;5.250;2022-10-17T05:25:06;16.60;99.90
16289;DHT22;26089;43.538;5.250;2022-10-17T05:27:33;16.60;99.90
16289;DHT22;26089;43.538;5.250;2022-10-17T05:30:00;16.60;99.90
16289;DHT22;26089;43.538;5.250;2022-10-17T05:32:27;16.60;99.90
16289;DHT22;26089;43.538;5.250;2022-10-17T05:34:54;16.70;99.90
16289;DHT22;26089;43.538;5.250;2022-10-17T05:37:21;16.70;99.90
16289;DHT22;26089;43.538;5.250;2022-10-17T05:39:49;16.70;99.90
16289;DHT22;26089;43.538;5.250;2022-10-17T05:42:16;16.70;99.90
16289;DHT22;26089;43.538;5.250;2022-10-17T05:44:43;16.70;99.90
16289;DHT22;26089;43.538;5.250;2022-10-17T05:47:10;16.70;99.90
16289;DHT22;26089;43.538;5.250;2022-10-17T05:49:37;16.80;99.90
16289;DHT22;26089;43.538;5.250;2022-10-17T05:52:04;16.80;99.90
16289;DHT22;26089;43.538;5.250;2022-10-17T05:54:31;16.90;99.90
16289;DHT22;26089;43.538;5.250;2022-10-17T05:57:00;16.90;99.90
16289;DHT22;26089;43.538;5.250;2022-10-17T05:59:27;16.90;99.90
16289;DHT22;26089;43.538;5.250;2022-10-17T06:01:54;16.90;99.90
16289;DHT22;26089;43.538;5.250;2022-10-17T06:04:21;16.80;99.90
16289;DHT22;26089;43.538;5.250;2022-10-17T06:06:48;16.80;99.90
16289;DHT22;26089;43.538;5.250;2022-10-17T06:09:15;16.80;99.90
16289;DHT22;26089;43.538;5.250;2022-10-17T06:11:42;16.90;99.90
16289;DHT22;26089;43.538;5.250;2022-10-17T06:14:10;16.90;99.90
16289;DHT22;26089;43.538;5.250;2022-10-17T06:16:37;16.90;99.90
16289;DHT22;26089;43.538;5.250;2022-10-17T06:19:04;17.00;99.90
16289;DHT22;26089;43.538;5.250;2022-10-17T06:21:31;17.10;99.90
16289;DHT22;26089;43.538;5.250;2022-10-17T06:24:01;17.30;99.90
16289;DHT22;26089;43.538;5.250;2022-10-17T06:26:28;17.40;99.90
16289;DHT22;26089;43.538;5.250;2022-10-17T06:28:55;17.50;99.90
16289;DHT22;26089;43.538;5.250;2022-10-17T06:31:23;17.60;99.90
16289;DHT22;26089;43.538;5.250;2022-10-17T06:33:50;17.80;99.90
16289;DHT22;26089;43.538;5.250;2022-10-17T06:36:17;17.90;99.90
16289;DHT22;26089;43.538;5.250;2022-10-17T06:38:44;18.10;99.90
16289;DHT22;26089;43.538;5.250;2022-10-17T06:41:14;18.30;99.90
16289;DHT22;26089;43.538;5.250;2022-10-17T06:43:44;18.30;99.90
16289;DHT22;26089;43.538;5.250;2022-10-17T06:46:12;18.40;99.90
16289;DHT22;26089;43.538;5.250;2022-10-17T06:48:40;18.40;99.90
16289;DHT22;26089;43.538;5.250;2022-10-17T06:51:08;18.50;99.90
16289;DHT22;26089;43.538;5.250;2022-10-17T06:53:37;18.50;99.90
16289;DHT22;26089;43.538;5.250;2022-10-17T06:56:05;18.60;99.90
16289;DHT22;26089;43.538;5.250;2022-10-17T06:58:34;18.60;99.90
16289;DHT22;26089;43.538;5.250;2022-10-17T07:01:03;18.60;99.90
16289;DHT22;26089;43.538;5.250;2022-10-17T07:03:31;18.50;99.90
16289;DHT22;26089;43.538;5.250;2022-10-17T07:05:59;18.50;99.90
16289;DHT22;26089;43.538;5.250;2022-10-17T07:08:26;18.60;99.90
16289;DHT22;26089;43.538;5.250;2022-10-17T07:10:54;18.70;99.90
16289;DHT22;26089;43.538;5.250;2022-10-17T07:13:21;18.80;99.90
16289;DHT22;26089;43.538;5.250;2022-10-17T07:15:48;18.90;99.90
16289;DHT22;26089;43.538;5.250;2022-10-17T07:18:15;18.90;99.90
16289;DHT22;26089;43.538;5.250;2022-10-17T07:20:42;18.90;99.90
16289;DHT22;26089;43.538;5.250;2022-10-17T07:23:10;19.00;99.90
16289;DHT22;26089;43.538;5.250;2022-10-17T07:25:37;19.20;99.90
16289;DHT22;26089;43.538;5.250;2022-10-17T07:28:04;19.40;99.90
16289;DHT22;26089;43.538;5.250;2022-10-17T07:30:32;19.50;99.90
16289;DHT22;26089;43.538;5.250;2022-10-17T07:32:59;19.70;99.90
16289;DHT22;26089;43.538;5.250;2022-10-17T07:35:26;19.70;99.90
16289;DHT22;26089;43.538;5.250;2022-10-17T07:37:53;20.00;99.90
16289;DHT22;26089;43.538;5.250;2022-10-17T07:40:22;20.20;99.90
16289;DHT22;26089;43.538;5.250;2022-10-17T07:42:49;20.50;99.90
16289;DHT22;26089;43.538;5.250;2022-10-17T07:45:16;20.80;99.90
16289;DHT22;26089;43.538;5.250;2022-10-17T07:47:43;21.10;99.90
16289;DHT22;26089;43.538;5.250;2022-10-17T07:50:10;21.60;99.90
16289;DHT22;26089;43.538;5.250;2022-10-17T07:52:37;22.10;99.90
16289;DHT22;26089;43.538;5.250;2022-10-17T07:55:05;22.80;99.90
16289;DHT22;26089;43.538;5.250;2022-10-17T07:57:34;23.20;99.90
16289;DHT22;26089;43.538;5.250;2022-10-17T08:00:01;23.50;99.90
16289;DHT22;26089;43.538;5.250;2022-10-17T08:02:28;23.70;99.90
16289;DHT22;26089;43.538;5.250;2022-10-17T08:04:55;24.00;99.90
16289;DHT22;26089;43.538;5.250;2022-10-17T08:07:22;24.30;99.90
16289;DHT22;26089;43.538;5.250;2022-10-17T08:09:49;24.70;99.90
16289;DHT22;26089;43.538;5.250;2022-10-17T08:12:16;25.20;99.90
16289;DHT22;26089;43.538;5.250;2022-10-17T08:14:45;25.60;99.90
16289;DHT22;26089;43.538;5.250;2022-10-17T08:17:12;25.90;99.90
16289;DHT22;26089;43.538;5.250;2022-10-17T08:19:39;26.20;99.90
16289;DHT22;26089;43.538;5.250;2022-10-17T08:22:07;26.50;99.90
16289;DHT22;26089;43.538;5.250;2022-10-17T08:24:34;26.60;99.90
16289;DHT22;26089;43.538;5.250;2022-10-17T08:27:01;26.70;99.90
16289;DHT22;26089;43.538;5.250;2022-10-17T08:29:33;26.80;99.90
16289;DHT22;26089;43.538;5.250;2022-10-17T08:32:01;26.80;99.90
16289;DHT22;26089;43.538;5.250;2022-10-17T08:34:28;26.90;99.90
16289;DHT22;26089;43.538;5.250;2022-10-17T08:36:55;27.00;99.90
16289;DHT22;26089;43.538;5.250;2022-10-17T08:39:22;26.70;99.90
16289;DHT22;26089;43.538;5.250;2022-10-17T08:42:04;26.90;99.90
16289;DHT22;26089;43.538;5.250;2022-10-17T08:44:38;27.20;99.90
16289;DHT22;26089;43.538;5.250;2022-10-17T08:47:13;27.10;99.90
16289;DHT22;26089;43.538;5.250;2022-10-17T08:49:46;26.90;99.90
16289;DHT22;26089;43.538;5.250;2022-10-17T08:52:22;26.50;99.90
16289;DHT22;26089;43.538;5.250;2022-10-17T08:54:52;26.10;99.90
16289;DHT22;26089;43.538;5.250;2022-10-17T08:57:19;25.80;99.90
16289;DHT22;26089;43.538;5.250;2022-10-17T08:59:49;25.40;99.90
16289;DHT22;26089;43.538;5.250;2022-10-17T09:02:38;25.00;99.90
16289;DHT22;26089;43.538;5.250;2022-10-17T09:05:33;24.60;99.90
16289;DHT22;26089;43.538;5.250;2022-10-17T09:08:12;24.50;99.90
16289;DHT22;26089;43.538;5.250;2022-10-17T09:10:49;24.50;99.90
16289;DHT22;26089;43.538;5.250;2022-10-17T09:13:30;24.30;99.90
16289;DHT22;26089;43.538;5.250;2022-10-17T09:16:13;24.30;99.90
16289;DHT22;26089;43.538;5.250;2022-10-17T09:18:55;24.10;99.90
16289;DHT22;26089;43.538;5.250;2022-10-17T09:21:26;23.90;99.90
16289;DHT22;26089;43.538;5.250;2022-10-17T09:23:59;23.70;99.90
16289;DHT22;26089;43.538;5.250;2022-10-17T09:26:27;23.70;99.90
16289;DHT22;26089;43.538;5.250;2022-10-17T09:28:56;23.80;99.90
16289;DHT22;26089;43.538;5.250;2022-10-17T09:31:28;23.90;99.90
16289;DHT22;26089;43.538;5.250;2022-10-17T09:34:00;23.90;99.90
16289;DHT22;26089;43.538;5.250;2022-10-17T09:36:30;23.90;99.90
16289;DHT22;26089;43.538;5.250;2022-10-17T09:38:59;23.90;99.90
16289;DHT22;26089;43.538;5.250;2022-10-17T09:41:33;24.00;99.90
16289;DHT22;26089;43.538;5.250;2022-10-17T09:44:15;24.00;99.90
16289;DHT22;26089;43.538;5.250;2022-10-17T09:46:51;23.90;99.90
16289;DHT22;26089;43.538;5.250;2022-10-17T09:49:26;23.90;99.90
16289;DHT22;26089;43.538;5.250;2022-10-17T09:51:55;23.90;99.90
16289;DHT22;26089;43.538;5.250;2022-10-17T09:54:24;24.10;99.90
16289;DHT22;26089;43.538;5.250;2022-10-17T09:57:00;24.40;99.90
16289;DHT22;26089;43.538;5.250;2022-10-17T09:59:30;24.70;99.90
16289;DHT22;26089;43.538;5.250;2022-10-17T10:02:08;25.00;99.90
16289;DHT22;26089;43.538;5.250;2022-10-17T10:04:39;25.50;99.90
16289;DHT22;26089;43.538;5.250;2022-10-17T10:07:17;25.80;99.90
16289;DHT22;26089;43.538;5.250;2022-10-17T10:09:46;25.90;99.90
16289;DHT22;26089;43.538;5.250;2022-10-17T10:12:17;26.10;99.90
16289;DHT22;26089;43.538;5.250;2022-10-17T10:14:45;26.10;99.90
16289;DHT22;26089;43.538;5.250;2022-10-17T10:17:33;26.00;99.90
16289;DHT22;26089;43.538;5.250;2022-10-17T10:23:10;26.00;99.90
16289;DHT22;26089;43.538;5.250;2022-10-17T10:25:48;26.40;99.90
16289;DHT22;26089;43.538;5.250;2022-10-17T10:28:16;26.90;99.90
16289;DHT22;26089;43.538;5.250;2022-10-17T10:30:48;27.30;99.90
16289;DHT22;26089;43.538;5.250;2022-10-17T10:33:18;27.60;99.90
16289;DHT22;26089;43.538;5.250;2022-10-17T10:35:54;27.70;99.90
16289;DHT22;26089;43.538;5.250;2022-10-17T10:38:22;27.80;99.90
16289;DHT22;26089;43.538;5.250;2022-10-17T10:40:51;28.00;99.90
16289;DHT22;26089;43.538;5.250;2022-10-17T10:43:23;28.10;99.90
16289;DHT22;26089;43.538;5.250;2022-10-17T10:45:51;28.20;99.90
16289;DHT22;26089;43.538;5.250;2022-10-17T10:48:21;28.20;99.90
16289;DHT22;26089;43.538;5.250;2022-10-17T10:50:50;28.20;99.90
16289;DHT22;26089;43.538;5.250;2022-10-17T10:53:37;28.20;99.90
16289;DHT22;26089;43.538;5.250;2022-10-17T10:56:11;28.50;99.90
16289;DHT22;26089;43.538;5.250;2022-10-17T10:58:46;28.60;99.90
16289;DHT22;26089;43.538;5.250;2022-10-17T11:01:21;28.60;99.90
16289;DHT22;26089;43.538;5.250;2022-10-17T11:03:58;28.70;99.90
16289;DHT22;26089;43.538;5.250;2022-10-17T11:06:33;28.70;99.90
16289;DHT22;26089;43.538;5.250;2022-10-17T11:09:12;28.90;99.90
16289;DHT22;26089;43.538;5.250;2022-10-17T11:11:46;29.10;99.90
16289;DHT22;26089;43.538;5.250;2022-10-17T11:14:17;29.60;99.90
16289;DHT22;26089;43.538;5.250;2022-10-17T11:16:49;29.80;99.90
16289;DHT22;26089;43.538;5.250;2022-10-17T11:19:24;29.80;99.90
16289;DHT22;26089;43.538;5.250;2022-10-17T11:22:01;29.90;99.90
16289;DHT22;26089;43.538;5.250;2022-10-17T11:24:37;30.10;99.90
16289;DHT22;26089;43.538;5.250;2022-10-17T11:27:07;30.60;99.90
16289;DHT22;26089;43.538;5.250;2022-10-17T11:29:36;30.90;99.90
16289;DHT22;26089;43.538;5.250;2022-10-17T11:32:07;31.00;99.90
16289;DHT22;26089;43.538;5.250;2022-10-17T11:34:40;31.10;99.90
16289;DHT22;26089;43.538;5.250;2022-10-17T11:37:15;30.90;99.90
16289;DHT22;26089;43.538;5.250;2022-10-17T11:39:49;30.80;99.90
16289;DHT22;26089;43.538;5.250;2022-10-17T11:42:21;31.10;99.90
16289;DHT22;26089;43.538;5.250;2022-10-17T11:44:52;31.30;99.90
16289;DHT22;26089;43.538;5.250;2022-10-17T11:47:28;31.20;99.90
16289;DHT22;26089;43.538;5.250;2022-10-17T11:50:01;31.20;99.90
16289;DHT22;26089;43.538;5.250;2022-10-17T11:52:34;31.40;99.90
16289;DHT22;26089;43.538;5.250;2022-10-17T11:55:09;31.50;99.90
16289;DHT22;26089;43.538;5.250;2022-10-17T11:57:48;31.60;99.90
16289;DHT22;26089;43.538;5.250;2022-10-17T12:00:24;32.00;99.90
16289;DHT22;26089;43.538;5.250;2022-10-17T12:03:04;31.90;99.90
16289;DHT22;26089;43.538;5.250;2022-10-17T12:05:38;31.50;99.90
16289;DHT22;26089;43.538;5.250;2022-10-17T12:08:12;30.80;99.90
16289;DHT22;26089;43.538;5.250;2022-10-17T12:10:52;30.30;99.90
16289;DHT22;26089;43.538;5.250;2022-10-17T12:13:47;30.30;99.90
16289;DHT22;26089;43.538;5.250;2022-10-17T12:16:47;30.60;99.90
16289;DHT22;26089;43.538;5.250;2022-10-17T12:19:32;30.50;99.90
16289;DHT22;26089;43.538;5.250;2022-10-17T12:22:03;30.10;99.90
16289;DHT22;26089;43.538;5.250;2022-10-17T12:24:34;29.80;99.90
16289;DHT22;26089;43.538;5.250;2022-10-17T12:27:26;29.70;99.90
16289;DHT22;26089;43.538;5.250;2022-10-17T12:29:58;29.90;99.90
16289;DHT22;26089;43.538;5.250;2022-10-17T12:32:25;30.10;99.90
16289;DHT22;26089;43.538;5.250;2022-10-17T12:34:53;30.00;99.90
16289;DHT22;26089;43.538;5.250;2022-10-17T12:40:53;29.30;99.90
16289;DHT22;26089;43.538;5.250;2022-10-17T12:43:55;29.00;99.90
16289;DHT22;26089;43.538;5.250;2022-10-17T12:46:55;28.80;99.90
16289;DHT22;26089;43.538;5.250;2022-10-17T12:49:46;28.70;99.90
16289;DHT22;26089;43.538;5.250;2022-10-17T12:52:20;28.60;99.90
16289;DHT22;26089;43.538;5.250;2022-10-17T12:55:05;28.90;99.90
16289;DHT22;26089;43.538;5.250;2022-10-17T12:57:36;28.70;99.90
16289;DHT22;26089;43.538;5.250;2022-10-17T13:00:14;28.60;99.90
16289;DHT22;26089;43.538;5.250;2022-10-17T13:02:43;28.30;99.90
16289;DHT22;26089;43.538;5.250;2022-10-17T13:05:14;28.00;99.90
16289;DHT22;26089;43.538;5.250;2022-10-17T13:07:43;27.80;99.90
16289;DHT22;26089;43.538;5.250;2022-10-17T13:10:19;27.90;99.90
16289;DHT22;26089;43.538;5.250;2022-10-17T13:12:47;27.40;99.90
16289;DHT22;26089;43.538;5.250;2022-10-17T13:15:17;27.60;99.90
16289;DHT22;26089;43.538;5.250;2022-10-17T13:17:54;27.90;99.90
16289;DHT22;26089;43.538;5.250;2022-10-17T13:20:24;27.80;99.90
16289;DHT22;26089;43.538;5.250;2022-10-17T13:22:53;27.60;99.90
16289;DHT22;26089;43.538;5.250;2022-10-17T13:25:21;27.20;99.90
16289;DHT22;26089;43.538;5.250;2022-10-17T13:27:49;27.20;99.90
16289;DHT22;26089;43.538;5.250;2022-10-17T13:30:25;27.10;99.90
16289;DHT22;26089;43.538;5.250;2022-10-17T13:32:53;27.10;99.90
16289;DHT22;26089;43.538;5.250;2022-10-17T13:35:26;27.30;99.90
16289;DHT22;26089;43.538;5.250;2022-10-17T13:37:54;27.50;99.90
16289;DHT22;26089;43.538;5.250;2022-10-17T13:40:24;27.80;99.90
16289;DHT22;26089;43.538;5.250;2022-10-17T13:42:52;27.80;99.90
16289;DHT22;26089;43.538;5.250;2022-10-17T13:45:26;27.90;99.90
16289;DHT22;26089;43.538;5.250;2022-10-17T13:47:54;27.80;99.90
16289;DHT22;26089;43.538;5.250;2022-10-17T13:50:29;27.30;99.90
16289;DHT22;26089;43.538;5.250;2022-10-17T13:53:17;27.10;99.90
16289;DHT22;26089;43.538;5.250;2022-10-17T13:55:52;27.20;99.90
16289;DHT22;26089;43.538;5.250;2022-10-17T13:58:19;27.20;99.90
16289;DHT22;26089;43.538;5.250;2022-10-17T14:00:48;27.40;99.90
16289;DHT22;26089;43.538;5.250;2022-10-17T14:03:18;27.60;99.90
16289;DHT22;26089;43.538;5.250;2022-10-17T14:06:06;27.70;99.90
16289;DHT22;26089;43.538;5.250;2022-10-17T14:08:36;27.80;99.90
16289;DHT22;26089;43.538;5.250;2022-10-17T14:11:13;27.90;99.90
16289;DHT22;26089;43.538;5.250;2022-10-17T14:13:41;28.10;99.90
16289;DHT22;26089;43.538;5.250;2022-10-17T14:16:10;27.90;99.90
16289;DHT22;26089;43.538;5.250;2022-10-17T14:18:37;27.70;99.90
16289;DHT22;26089;43.538;5.250;2022-10-17T14:21:05;27.40;99.90
16289;DHT22;26089;43.538;5.250;2022-10-17T14:23:36;27.50;99.90
16289;DHT22;26089;43.538;5.250;2022-10-17T14:26:06;27.40;99.90
16289;DHT22;26089;43.538;5.250;2022-10-17T14:28:35;27.10;99.90
16289;DHT22;26089;43.538;5.250;2022-10-17T14:31:21;26.60;99.90
16289;DHT22;26089;43.538;5.250;2022-10-17T14:33:51;26.80;99.90
16289;DHT22;26089;43.538;5.250;2022-10-17T14:36:19;27.00;99.90
16289;DHT22;26089;43.538;5.250;2022-10-17T14:38:48;27.20;99.90
16289;DHT22;26089;43.538;5.250;2022-10-17T14:41:21;27.10;99.90
16289;DHT22;26089;43.538;5.250;2022-10-17T14:43:54;27.00;99.90
16289;DHT22;26089;43.538;5.250;2022-10-17T14:46:23;27.10;99.90
16289;DHT22;26089;43.538;5.250;2022-10-17T14:48:53;26.90;99.90
16289;DHT22;26089;43.538;5.250;2022-10-17T14:51:21;26.60;99.90
16289;DHT22;26089;43.538;5.250;2022-10-17T14:54:03;26.30;99.90
16289;DHT22;26089;43.538;5.250;2022-10-17T14:56:35;26.10;99.90
16289;DHT22;26089;43.538;5.250;2022-10-17T14:59:03;25.90;99.90
16289;DHT22;26089;43.538;5.250;2022-10-17T15:01:33;25.60;99.90
16289;DHT22;26089;43.538;5.250;2022-10-17T15:04:00;25.40;99.90
16289;DHT22;26089;43.538;5.250;2022-10-17T15:06:29;25.20;99.90
16289;DHT22;26089;43.538;5.250;2022-10-17T15:08:57;25.00;99.90
16289;DHT22;26089;43.538;5.250;2022-10-17T15:11:24;24.80;99.90
16289;DHT22;26089;43.538;5.250;2022-10-17T15:13:51;24.70;99.90
16289;DHT22;26089;43.538;5.250;2022-10-17T15:16:21;24.60;99.90
16289;DHT22;26089;43.538;5.250;2022-10-17T15:18:50;24.60;99.90
16289;DHT22;26089;43.538;5.250;2022-10-17T15:21:19;24.70;99.90
16289;DHT22;26089;43.538;5.250;2022-10-17T15:23:46;24.60;99.90
16289;DHT22;26089;43.538;5.250;2022-10-17T15:26:15;24.50;99.90
16289;DHT22;26089;43.538;5.250;2022-10-17T15:28:43;24.60;99.90
16289;DHT22;26089;43.538;5.250;2022-10-17T15:31:13;24.50;99.90
16289;DHT22;26089;43.538;5.250;2022-10-17T15:33:41;24.40;99.90
16289;DHT22;26089;43.538;5.250;2022-10-17T15:36:20;24.40;99.90
16289;DHT22;26089;43.538;5.250;2022-10-17T15:38:49;24.50;99.90
16289;DHT22;26089;43.538;5.250;2022-10-17T15:41:16;24.30;99.90
16289;DHT22;26089;43.538;5.250;2022-10-17T15:43:43;24.30;99.90
16289;DHT22;26089;43.538;5.250;2022-10-17T15:46:12;24.10;99.90
16289;DHT22;26089;43.538;5.250;2022-10-17T15:48:40;23.90;99.90
16289;DHT22;26089;43.538;5.250;2022-10-17T15:51:07;23.70;99.90
16289;DHT22;26089;43.538;5.250;2022-10-17T15:53:36;23.70;99.90
16289;DHT22;26089;43.538;5.250;2022-10-17T15:56:04;23.60;99.90
16289;DHT22;26089;43.538;5.250;2022-10-17T15:58:34;23.50;99.90
16289;DHT22;26089;43.538;5.250;2022-10-17T16:01:02;23.50;99.90
16289;DHT22;26089;43.538;5.250;2022-10-17T16:03:29;23.50;99.90
16289;DHT22;26089;43.538;5.250;2022-10-17T16:05:57;23.50;99.90